createdAt,value
2018-01-15T00:00:26.112Z,80.81
2018-01-15T00:01:26.399Z,80.75
2018-01-15T00:02:26.658Z,80.63
2018-01-15T00:03:26.323Z,80.69
2018-01-15T00:04:27.269Z,80.67
2018-01-15T00:05:26.555Z,80.76
2018-01-15T00:06:27.142Z,80.42
2018-01-15T00:07:26.229Z,80.5
2018-01-15T00:08:26.934Z,80.69
2018-01-15T00:09:26.321Z,80.49
2018-01-15T00:10:26.754Z,80.58
2018-01-15T00:11:26.254Z,80.63
2018-01-15T00:12:26.333Z,80.51
2018-01-15T00:13:27.239Z,80.64
2018-01-15T00:14:25.924Z,80.51
2018-01-15T00:15:25.639Z,80.45
2018-01-15T00:16:27.313Z,80.35
2018-01-15T00:17:26.134Z,80.43
2018-01-15T00:18:25.373Z,80.35
2018-01-15T00:19:26.220Z,80.5
2018-01-15T00:20:25.863Z,80.64
2018-01-15T00:21:25.784Z,80.7
2018-01-15T00:22:25.911Z,80.73
2018-01-15T00:23:25.861Z,80.75
2018-01-15T00:24:26.727Z,80.85
2018-01-15T00:25:26.092Z,81
2018-01-15T00:26:25.925Z,80.66
2018-01-15T00:27:25.891Z,80.93
2018-01-15T00:28:25.757Z,80.95
2018-01-15T00:29:25.890Z,80.9
2018-01-15T00:30:26.167Z,80.7
2018-01-15T00:31:26.100Z,80.6
2018-01-15T00:32:25.920Z,80.54
2018-01-15T00:33:26.008Z,80.74
2018-01-15T00:34:25.919Z,80.59
2018-01-15T00:35:25.893Z,80.52
2018-01-15T00:36:25.916Z,80.23
2018-01-15T00:37:25.946Z,80.38
2018-01-15T00:38:26.313Z,80.18
2018-01-15T00:39:26.075Z,80.13
2018-01-15T00:40:25.876Z,80.65
2018-01-15T00:41:25.893Z,80.43
2018-01-15T00:42:25.973Z,80.53
2018-01-15T00:43:26.125Z,80.42
2018-01-15T00:44:26.269Z,80.49
2018-01-15T00:45:25.651Z,80.67
2018-01-15T00:46:25.939Z,80.73
2018-01-15T00:47:26.104Z,80.63
2018-01-15T00:48:25.890Z,80.65
2018-01-15T00:49:26.039Z,80.8
2018-01-15T00:50:26.024Z,80.61
2018-01-15T00:51:25.938Z,80.5
2018-01-15T00:52:25.958Z,80.5
2018-01-15T00:53:26.015Z,80.8
2018-01-15T00:54:26.280Z,80.6
2018-01-15T00:55:26.214Z,80.53
2018-01-15T00:56:26.094Z,80.4
2018-01-15T00:57:25.343Z,80.71
2018-01-15T00:58:25.888Z,80.86
2018-01-15T00:59:25.960Z,80.69
2018-01-15T01:00:27.048Z,80.75
2018-01-15T01:01:26.004Z,80.9
2018-01-15T01:02:26.026Z,80.97
2018-01-15T01:03:25.811Z,81.06
2018-01-15T01:04:25.903Z,80.92
2018-01-15T01:05:26.010Z,80.98
2018-01-15T01:06:25.869Z,80.95
2018-01-15T01:07:25.615Z,80.93
2018-01-15T01:08:25.699Z,80.88
2018-01-15T01:09:26.165Z,80.84
2018-01-15T01:10:26.064Z,81.01
2018-01-15T01:11:25.894Z,80.93
2018-01-15T01:12:25.537Z,81.07
2018-01-15T01:13:25.850Z,80.78
2018-01-15T01:14:25.980Z,80.84
2018-01-15T01:15:25.985Z,80.95
2018-01-15T01:16:26.052Z,81.03
2018-01-15T01:17:25.882Z,80.81
2018-01-15T01:18:25.999Z,80.64
2018-01-15T01:19:25.790Z,80.85
2018-01-15T01:20:25.537Z,80.89
2018-01-15T01:21:25.981Z,81.06
2018-01-15T01:22:25.706Z,81.18
2018-01-15T01:23:25.934Z,81.08
2018-01-15T01:24:25.635Z,81.24
2018-01-15T01:25:26.003Z,81.25
2018-01-15T01:26:25.668Z,81.1
2018-01-15T01:27:25.916Z,81.22
2018-01-15T01:28:26.272Z,81.22
2018-01-15T01:29:26.003Z,81.08
2018-01-15T01:30:25.933Z,81.27
2018-01-15T01:31:25.601Z,81.25
2018-01-15T01:32:25.680Z,81.1
2018-01-15T01:33:25.950Z,81.05
2018-01-15T01:34:26.323Z,81.22
2018-01-15T01:35:25.807Z,81.12
2018-01-15T01:36:26.013Z,81.23
2018-01-15T01:38:53.431Z,81.17
2018-01-15T01:39:25.527Z,81.08
2018-01-15T01:40:26.449Z,81.06
2018-01-15T01:41:26.019Z,81.25
2018-01-15T01:42:24.903Z,81.35
2018-01-15T01:43:25.097Z,81.19
2018-01-15T01:44:25.127Z,81.26
2018-01-15T01:45:25.024Z,81.14
2018-01-15T01:46:25.004Z,81.19
2018-01-15T01:47:25.150Z,81.4
2018-01-15T01:48:25.012Z,81.28
2018-01-15T01:49:25.204Z,81.3
2018-01-15T01:50:25.090Z,81.58
2018-01-15T01:51:25.053Z,81.2
2018-01-15T01:52:25.096Z,81.18
2018-01-15T01:53:25.007Z,81.28
2018-01-15T01:54:25.074Z,81.36
2018-01-15T01:55:25.068Z,81.27
2018-01-15T01:56:24.984Z,81.12
2018-01-15T01:57:24.972Z,81.07
2018-01-15T01:58:24.919Z,81.29
2018-01-15T01:59:25.037Z,81.18
2018-01-15T02:00:25.115Z,81.13
2018-01-15T02:01:25.021Z,81.08
2018-01-15T02:02:25.065Z,81.12
2018-01-15T02:03:24.932Z,81.19
2018-01-15T02:04:25.066Z,81.41
2018-01-15T02:05:24.934Z,81.2
2018-01-15T02:06:24.814Z,81.33
2018-01-15T02:07:24.877Z,81.21
2018-01-15T02:08:25.004Z,81.17
2018-01-15T02:09:24.940Z,81.4
2018-01-15T02:10:24.876Z,81.12
2018-01-15T02:11:25.028Z,81.14
2018-01-15T02:12:25.072Z,81.12
2018-01-15T02:13:24.976Z,81.2
2018-01-15T02:14:25.366Z,81.18
2018-01-15T02:15:25.162Z,81.34
2018-01-15T02:16:25.120Z,81.3
2018-01-15T02:17:25.191Z,81.24
2018-01-15T02:18:25.190Z,81.2
2018-01-15T02:19:25.170Z,81.18
2018-01-15T02:20:24.970Z,81.13
2018-01-15T02:21:24.977Z,81.28
2018-01-15T02:22:25.249Z,81.4
2018-01-15T02:23:25.142Z,81.31
2018-01-15T02:24:25.059Z,81.41
2018-01-15T02:25:25.018Z,81.2
2018-01-15T02:26:25.380Z,81.53
2018-01-15T02:27:24.932Z,81.62
2018-01-15T02:28:25.104Z,81.79
2018-01-15T02:29:25.124Z,81.79
2018-01-15T02:30:25.043Z,81.7
2018-01-15T02:31:25.210Z,81.62
2018-01-15T02:32:25.274Z,81.66
2018-01-15T02:33:25.241Z,81.56
2018-01-15T02:34:25.262Z,81.68
2018-01-15T02:35:24.949Z,81.51
2018-01-15T02:36:25.038Z,81.38
2018-01-15T02:37:25.085Z,81.46
2018-01-15T02:38:24.971Z,81.39
2018-01-15T02:39:25.219Z,81.64
2018-01-15T02:40:25.034Z,81.4
2018-01-15T02:41:25.022Z,81.57
2018-01-15T02:42:25.057Z,81.46
2018-01-15T02:43:25.109Z,81.42
2018-01-15T02:44:25.121Z,81.57
2018-01-15T02:45:25.108Z,81.71
2018-01-15T02:46:25.262Z,81.57
2018-01-15T02:47:25.046Z,81.41
2018-01-15T02:48:25.182Z,81.59
2018-01-15T02:49:25.538Z,81.67
2018-01-15T02:50:25.061Z,81.62
2018-01-15T02:51:25.194Z,81.56
2018-01-15T02:52:25.222Z,81.58
2018-01-15T02:53:25.103Z,81.55
2018-01-15T02:55:25.212Z,81.52
2018-01-15T02:56:25.153Z,81.63
2018-01-15T02:57:25.249Z,81.67
2018-01-15T02:58:25.192Z,81.69
2018-01-15T02:59:26.227Z,81.6
2018-01-15T03:00:26.104Z,81.62
2018-01-15T03:01:26.142Z,81.63
2018-01-15T03:02:26.096Z,81.46
2018-01-15T03:03:26.387Z,81.52
2018-01-15T03:04:26.172Z,81.66
2018-01-15T03:05:26.301Z,81.88
2018-01-15T03:06:26.287Z,81.88
2018-01-15T03:07:26.147Z,81.87
2018-01-15T03:08:26.313Z,81.94
2018-01-15T03:09:26.254Z,81.87
2018-01-15T03:10:25.988Z,82.07
2018-01-15T03:11:26.436Z,81.78
2018-01-15T03:12:26.271Z,81.85
2018-01-15T03:13:26.258Z,81.85
2018-01-15T03:14:26.197Z,81.91
2018-01-15T03:15:26.483Z,81.98
2018-01-15T03:16:26.080Z,81.71
2018-01-15T03:17:26.267Z,81.75
2018-01-15T03:18:26.189Z,81.62
2018-01-15T03:19:26.302Z,81.86
2018-01-15T03:20:26.298Z,81.9
2018-01-15T03:21:26.265Z,82
2018-01-15T03:22:26.124Z,82.17
2018-01-15T03:23:26.205Z,81.97
2018-01-15T03:24:26.088Z,81.95
2018-01-15T03:25:26.565Z,82.1
2018-01-15T03:26:26.344Z,82.15
2018-01-15T03:27:26.535Z,82.04
2018-01-15T03:28:26.192Z,82.02
2018-01-15T03:29:26.242Z,82.46
2018-01-15T03:30:26.037Z,82.42
2018-01-15T03:31:26.339Z,82.58
2018-01-15T03:32:26.321Z,82.64
2018-01-15T03:33:26.280Z,82.44
2018-01-15T03:34:26.775Z,82.31
2018-01-15T03:35:26.356Z,82.33
2018-01-15T03:36:26.452Z,82.18
2018-01-15T03:37:26.342Z,82.29
2018-01-15T03:38:26.380Z,82.33
2018-01-15T03:39:26.219Z,82.23
2018-01-15T03:40:26.130Z,82.14
2018-01-15T03:41:26.309Z,82.61
2018-01-15T03:42:25.953Z,82.49
2018-01-15T03:43:26.122Z,82.58
2018-01-15T03:44:26.339Z,82.59
2018-01-15T03:45:26.179Z,82.49
2018-01-15T03:46:26.312Z,82.38
2018-01-15T03:47:26.361Z,82.42
2018-01-15T03:48:26.381Z,82.29
2018-01-15T03:49:26.009Z,82.14
2018-01-15T03:50:26.219Z,82.16
2018-01-15T03:51:26.211Z,82.18
2018-01-15T03:52:26.145Z,82
2018-01-15T03:53:26.348Z,81.91
2018-01-15T03:54:26.262Z,82.07
2018-01-15T03:55:26.234Z,81.99
2018-01-15T03:56:25.923Z,82.16
2018-01-15T03:57:26.524Z,81.84
2018-01-15T03:58:26.689Z,82.14
2018-01-15T03:59:25.457Z,82.15
2018-01-15T04:00:25.886Z,82.22
2018-01-15T04:01:26.343Z,82.18
2018-01-15T04:02:25.862Z,81.95
2018-01-15T04:03:26.273Z,81.77
2018-01-15T04:04:26.381Z,81.87
2018-01-15T04:05:25.610Z,81.84
2018-01-15T04:06:26.296Z,81.82
2018-01-15T04:07:26.326Z,81.72
2018-01-15T04:08:26.352Z,81.71
2018-01-15T04:09:26.363Z,81.97
2018-01-15T04:10:26.247Z,81.87
2018-01-15T04:11:26.450Z,81.76
2018-01-15T04:12:26.496Z,81.73
2018-01-15T04:13:26.570Z,81.67
2018-01-15T04:14:25.895Z,81.73
2018-01-15T04:15:26.746Z,82.08
2018-01-15T04:16:26.168Z,81.87
2018-01-15T04:17:26.590Z,82.07
2018-01-15T04:18:26.066Z,82.16
2018-01-15T04:19:26.489Z,82.15
2018-01-15T04:20:26.680Z,82.15
2018-01-15T04:21:26.525Z,82.14
2018-01-15T04:22:27.168Z,82.07
2018-01-15T04:23:26.526Z,82
2018-01-15T04:24:25.749Z,81.97
2018-01-15T04:25:26.372Z,82.1
2018-01-15T04:26:33.597Z,82.17
2018-01-15T04:27:26.327Z,82.43
2018-01-15T04:28:26.297Z,82.26
2018-01-15T04:29:25.998Z,82.01
2018-01-15T04:30:26.359Z,81.99
2018-01-15T04:31:26.571Z,82.32
2018-01-15T04:32:25.882Z,82.4
2018-01-15T04:33:26.435Z,82.36
2018-01-15T04:34:26.406Z,82.57
2018-01-15T04:35:26.447Z,82.38
2018-01-15T04:36:26.813Z,82.31
2018-01-15T04:37:25.903Z,82.24
2018-01-15T04:38:26.337Z,82.3
2018-01-15T04:39:26.958Z,82.28
2018-01-15T04:40:26.508Z,82.26
2018-01-15T04:41:26.261Z,82.22
2018-01-15T04:42:26.402Z,82.28
2018-01-15T04:43:25.505Z,82.16
2018-01-15T04:44:25.425Z,82.2
2018-01-15T04:45:25.360Z,82.02
2018-01-15T04:46:25.357Z,82.11
2018-01-15T04:47:25.374Z,81.9
2018-01-15T04:48:25.041Z,81.99
2018-01-15T04:49:25.496Z,82.07
2018-01-15T04:50:25.293Z,82
2018-01-15T04:51:25.377Z,81.84
2018-01-15T04:52:25.131Z,81.94
2018-01-15T04:53:25.478Z,81.87
2018-01-15T04:54:25.377Z,82
2018-01-15T04:55:26.172Z,81.88
2018-01-15T04:56:25.287Z,81.98
2018-01-15T04:57:25.436Z,82.2
2018-01-15T04:58:25.006Z,82.37
2018-01-15T04:59:25.938Z,82.4
2018-01-15T05:00:25.543Z,82.41
2018-01-15T05:01:25.499Z,82.36
2018-01-15T05:02:25.698Z,82.45
2018-01-15T05:03:25.323Z,82.46
2018-01-15T05:04:25.496Z,82.37
2018-01-15T05:05:25.224Z,82.42
2018-01-15T05:06:25.411Z,82.38
2018-01-15T05:07:25.696Z,82.44
2018-01-15T05:08:25.277Z,82.51
2018-01-15T05:09:25.333Z,82.64
2018-01-15T05:10:25.516Z,82.3
2018-01-15T05:11:25.268Z,82.32
2018-01-15T05:12:25.367Z,82.36
2018-01-15T05:13:25.517Z,82.8
2018-01-15T05:14:25.214Z,82.9
2018-01-15T05:15:25.432Z,82.99
2018-01-15T05:16:25.290Z,82.85
2018-01-15T05:17:25.465Z,83.04
2018-01-15T05:18:25.697Z,83
2018-01-15T05:19:25.316Z,83.1
2018-01-15T05:20:25.863Z,82.93
2018-01-15T05:21:25.318Z,82.76
2018-01-15T05:22:25.495Z,82.81
2018-01-15T05:23:25.304Z,82.88
2018-01-15T05:24:25.351Z,83.08
2018-01-15T05:25:25.460Z,82.97
2018-01-15T05:26:25.540Z,83.04
2018-01-15T05:27:25.485Z,83.27
2018-01-15T05:28:25.073Z,83.31
2018-01-15T05:29:26.434Z,83.39
2018-01-15T05:30:25.041Z,83.1
2018-01-15T05:31:25.221Z,83.02
2018-01-15T05:32:25.021Z,83.29
2018-01-15T05:33:25.548Z,83.15
2018-01-15T05:34:25.379Z,83.25
2018-01-15T05:35:26.001Z,83.25
2018-01-15T05:36:24.965Z,83.26
2018-01-15T05:37:25.373Z,82.92
2018-01-15T05:38:25.088Z,83.18
2018-01-15T05:39:25.732Z,83.12
2018-01-15T05:40:28.335Z,83.08
2018-01-15T05:41:25.331Z,82.91
2018-01-15T05:42:24.998Z,83.09
2018-01-15T05:43:26.128Z,83.27
2018-01-15T05:44:25.550Z,83.2
2018-01-15T05:45:25.539Z,83.03
2018-01-15T05:46:25.640Z,83.09
2018-01-15T05:47:25.166Z,83.29
2018-01-15T05:48:25.213Z,83.37
2018-01-15T05:49:25.546Z,83.2
2018-01-15T05:50:25.120Z,83.63
2018-01-15T05:51:25.578Z,83.48
2018-01-15T05:52:25.102Z,83.35
2018-01-15T05:53:25.105Z,83.4
2018-01-15T05:54:25.102Z,83.4
2018-01-15T05:55:25.357Z,82.98
2018-01-15T05:56:26.793Z,83.19
2018-01-15T05:57:25.012Z,83.18
2018-01-15T05:58:25.875Z,83.15
2018-01-15T05:59:25.116Z,83.21
2018-01-15T06:00:25.479Z,82.93
2018-01-15T06:01:25.523Z,83.19
2018-01-15T06:02:25.460Z,83.41
2018-01-15T06:03:25.447Z,83.4
2018-01-15T06:04:25.487Z,83.34
2018-01-15T06:05:25.011Z,83.13
2018-01-15T06:06:25.403Z,83.07
2018-01-15T06:07:25.680Z,83.23
2018-01-15T06:08:25.748Z,83.18
2018-01-15T06:09:25.535Z,83.32
2018-01-15T06:10:25.655Z,83.23
2018-01-15T06:11:25.699Z,83.23
2018-01-15T06:12:25.314Z,83.32
2018-01-15T06:13:25.761Z,83.66
2018-01-15T06:14:24.597Z,83.48
2018-01-15T06:15:24.511Z,83.49
2018-01-15T06:16:24.462Z,83.39
2018-01-15T06:17:24.583Z,83.75
2018-01-15T06:18:24.573Z,83.62
2018-01-15T06:19:24.533Z,83.5
2018-01-15T06:20:24.445Z,83.68
2018-01-15T06:21:24.342Z,83.5
2018-01-15T06:22:24.503Z,83.5
2018-01-15T06:23:24.484Z,83.77
2018-01-15T06:24:24.441Z,83.6
2018-01-15T06:25:24.480Z,83.71
2018-01-15T06:26:24.545Z,83.68
2018-01-15T06:27:24.498Z,83.66
2018-01-15T06:28:24.568Z,83.56
2018-01-15T06:29:24.472Z,83.41
2018-01-15T06:30:24.451Z,83.22
2018-01-15T06:31:24.550Z,83.47
2018-01-15T06:32:24.454Z,83.46
2018-01-15T06:33:24.697Z,83.47
2018-01-15T06:34:24.445Z,83.81
2018-01-15T06:35:24.466Z,84.48
2018-01-15T06:36:24.332Z,84.28
2018-01-15T06:37:25.025Z,84.23
2018-01-15T06:38:24.437Z,84.09
2018-01-15T06:39:24.548Z,84.24
2018-01-15T06:40:24.565Z,84.28
2018-01-15T06:41:24.571Z,84.5
2018-01-15T06:42:24.578Z,84.59
2018-01-15T06:43:24.799Z,84.58
2018-01-15T06:44:24.469Z,84.19
2018-01-15T06:45:24.623Z,84.11
2018-01-15T06:46:24.684Z,84.24
2018-01-15T06:47:24.455Z,84.29
2018-01-15T06:48:24.564Z,83.95
2018-01-15T06:49:24.674Z,83.8
2018-01-15T06:50:24.636Z,84.01
2018-01-15T06:51:24.523Z,84.18
2018-01-15T06:52:24.660Z,84.23
2018-01-15T06:53:24.704Z,83.9
2018-01-15T06:54:24.515Z,83.77
2018-01-15T06:55:24.666Z,84.07
2018-01-15T06:56:24.634Z,84.02
2018-01-15T06:57:24.635Z,84.1
2018-01-15T06:58:24.545Z,83.89
2018-01-15T06:59:24.718Z,83.67
2018-01-15T07:00:24.648Z,83.71
2018-01-15T07:01:24.744Z,83.82
2018-01-15T07:02:24.619Z,83.78
2018-01-15T07:03:24.681Z,83.74
2018-01-15T07:04:24.458Z,83.79
2018-01-15T07:05:24.896Z,83.75
2018-01-15T07:06:24.651Z,84.06
2018-01-15T07:07:25.196Z,84.17
2018-01-15T07:08:24.615Z,83.51
2018-01-15T07:09:24.557Z,83.74
2018-01-15T07:10:24.635Z,83.72
2018-01-15T07:11:24.851Z,83.74
2018-01-15T07:12:24.718Z,83.5
2018-01-15T07:13:24.789Z,83.15
2018-01-15T07:14:24.740Z,83.36
2018-01-15T07:15:24.656Z,83.69
2018-01-15T07:16:24.772Z,83.95
2018-01-15T07:17:24.679Z,83.66
2018-01-15T07:18:24.659Z,83.88
2018-01-15T07:19:24.686Z,83.5
2018-01-15T07:20:25.387Z,83.34
2018-01-15T07:21:25.088Z,83.38
2018-01-15T07:22:24.628Z,83.41
2018-01-15T07:23:24.676Z,83.5
2018-01-15T07:24:24.639Z,83.49
2018-01-15T07:25:24.767Z,83.61
2018-01-15T07:26:24.847Z,83.45
2018-01-15T07:27:24.852Z,83.49
2018-01-15T07:28:24.715Z,83.56
2018-01-15T07:29:24.694Z,83.47
2018-01-15T07:30:24.750Z,83.79
2018-01-15T07:31:24.669Z,83.55
2018-01-15T07:32:24.946Z,83.76
2018-01-15T07:33:24.957Z,83.93
2018-01-15T07:34:24.689Z,84.04
2018-01-15T07:35:24.692Z,83.85
2018-01-15T07:36:25.012Z,83.73
2018-01-15T07:37:24.749Z,83.72
2018-01-15T07:38:25.215Z,83.72
2018-01-15T07:39:24.557Z,83.69
2018-01-15T07:40:24.721Z,83.67
2018-01-15T07:41:24.910Z,83.69
2018-01-15T07:42:24.836Z,83.64
2018-01-15T07:43:24.877Z,83.56
2018-01-15T07:44:24.670Z,83.67
2018-01-15T07:45:24.641Z,83.64
2018-01-15T07:46:24.704Z,83.54
2018-01-15T07:47:24.802Z,83.26
2018-01-15T07:48:24.767Z,83.23
2018-01-15T07:49:25.718Z,83.16
2018-01-15T07:50:24.607Z,83.4
2018-01-15T07:51:25.174Z,83.35
2018-01-15T07:52:24.677Z,83.29
2018-01-15T07:53:24.793Z,83.37
2018-01-15T07:54:24.979Z,83.24
2018-01-15T07:55:24.631Z,82.96
2018-01-15T07:56:24.812Z,83.13
2018-01-15T07:57:24.773Z,83.09
2018-01-15T07:58:24.688Z,83.28
2018-01-15T07:59:24.813Z,83.14
2018-01-15T08:00:24.857Z,83.05
2018-01-15T08:01:24.775Z,83.02
2018-01-15T08:02:24.873Z,82.9
2018-01-15T08:03:24.694Z,82.44
2018-01-15T08:04:24.675Z,83.05
2018-01-15T08:05:24.797Z,82.9
2018-01-15T08:06:24.856Z,82.67
2018-01-15T08:07:24.870Z,82.54
2018-01-15T08:08:24.907Z,82.69
2018-01-15T08:09:24.764Z,82.66
2018-01-15T08:10:24.944Z,82.87
2018-01-15T08:11:25.235Z,82.77
2018-01-15T08:12:24.640Z,82.79
2018-01-15T08:13:24.996Z,82.89
2018-01-15T08:14:24.960Z,82.59
2018-01-15T08:15:24.897Z,82.39
2018-01-15T08:16:24.677Z,82.29
2018-01-15T08:17:24.883Z,82.18
2018-01-15T08:18:24.943Z,82.29
2018-01-15T08:19:24.901Z,82.25
2018-01-15T08:20:25.002Z,82.22
2018-01-15T08:21:24.864Z,82.17
2018-01-15T08:22:24.841Z,81.92
2018-01-15T08:23:24.905Z,82.05
2018-01-15T08:24:24.844Z,82.11
2018-01-15T08:25:24.806Z,82.06
2018-01-15T08:26:24.836Z,82.04
2018-01-15T08:27:24.821Z,82.05
2018-01-15T08:28:24.791Z,82
2018-01-15T08:29:24.810Z,82.08
2018-01-15T08:30:25.014Z,81.84
2018-01-15T08:31:24.753Z,82.23
2018-01-15T08:32:24.717Z,82.06
2018-01-15T08:33:24.841Z,82.25
2018-01-15T08:34:24.967Z,82.11
2018-01-15T08:35:24.982Z,82.26
2018-01-15T08:36:24.764Z,82.03
2018-01-15T08:37:24.912Z,81.97
2018-01-15T08:38:24.944Z,81.99
2018-01-15T08:39:24.914Z,82.03
2018-01-15T08:40:25.405Z,81.73
2018-01-15T08:41:25.038Z,81.63
2018-01-15T08:42:24.864Z,81.82
2018-01-15T08:43:24.996Z,81.88
2018-01-15T08:44:25.136Z,81.73
2018-01-15T08:45:24.691Z,81.72
2018-01-15T08:46:24.799Z,81.73
2018-01-15T08:47:25.111Z,81.97
2018-01-15T08:48:24.982Z,81.95
2018-01-15T08:49:24.855Z,82.2
2018-01-15T08:50:24.828Z,82.09
2018-01-15T08:51:24.845Z,82.25
2018-01-15T08:52:25.333Z,81.94
2018-01-15T08:53:24.972Z,82.1
2018-01-15T08:54:24.908Z,81.92
2018-01-15T08:55:24.996Z,81.88
2018-01-15T08:56:24.914Z,81.89
2018-01-15T08:57:24.773Z,82.12
2018-01-15T08:58:24.969Z,81.98
2018-01-15T08:59:25.072Z,81.97
2018-01-15T09:00:24.965Z,82.01
2018-01-15T09:01:24.889Z,81.77
2018-01-15T09:02:24.896Z,82.01
2018-01-15T09:03:24.954Z,82.04
2018-01-15T09:04:24.829Z,81.85
2018-01-15T09:05:24.911Z,81.75
2018-01-15T09:06:24.888Z,81.84
2018-01-15T09:07:25.018Z,81.55
2018-01-15T09:08:24.970Z,81.54
2018-01-15T09:09:24.988Z,81.58
2018-01-15T09:10:24.889Z,81.69
2018-01-15T09:11:24.762Z,81.62
2018-01-15T09:12:24.951Z,81.51
2018-01-15T09:13:25.111Z,81.63
2018-01-15T09:14:24.892Z,81.75
2018-01-15T09:15:25.072Z,81.45
2018-01-15T09:16:25.116Z,81.59
2018-01-15T09:17:25.179Z,81.5
2018-01-15T09:18:25.034Z,81.52
2018-01-15T09:19:24.973Z,81.37
2018-01-15T09:20:24.899Z,81.29
2018-01-15T09:21:25.137Z,81.2
2018-01-15T09:22:25.092Z,81.21
2018-01-15T09:23:25.118Z,81.37
2018-01-15T09:24:25.120Z,81.43
2018-01-15T09:25:25.075Z,81.3
2018-01-15T09:26:25.024Z,81.12
2018-01-15T09:27:25.176Z,81.21
2018-01-15T09:28:25.149Z,81.3
2018-01-15T09:29:25.022Z,81.53
2018-01-15T09:30:24.950Z,81.58
2018-01-15T09:31:24.953Z,81.51
2018-01-15T09:32:25.022Z,81.41
2018-01-15T09:33:24.962Z,81.36
2018-01-15T09:34:24.922Z,81.35
2018-01-15T09:35:24.870Z,81.63
2018-01-15T09:36:24.909Z,81.39
2018-01-15T09:37:25.803Z,81.37
2018-01-15T09:38:25.008Z,81.08
2018-01-15T09:39:25.224Z,80.89
2018-01-15T09:40:25.148Z,81.29
2018-01-15T09:41:24.889Z,81.18
2018-01-15T09:42:24.929Z,81.2
2018-01-15T09:43:25.025Z,81.18
2018-01-15T09:44:25.106Z,81.06
2018-01-15T09:45:25.040Z,81.12
2018-01-15T09:46:25.108Z,80.91
2018-01-15T09:47:25.203Z,81.16
2018-01-15T09:48:25.264Z,81.01
2018-01-15T09:49:25.223Z,80.83
2018-01-15T09:50:25.190Z,81.01
2018-01-15T09:51:25.154Z,81.04
2018-01-15T09:52:25.120Z,81.2
2018-01-15T09:53:25.196Z,81.1
2018-01-15T09:54:25.190Z,81.05
2018-01-15T09:55:25.325Z,81.15
2018-01-15T09:56:25.036Z,80.99
2018-01-15T09:57:25.208Z,80.82
2018-01-15T09:58:25.101Z,81.07
2018-01-15T09:59:25.209Z,81.04
2018-01-15T10:00:25.228Z,81.19
2018-01-15T10:01:25.223Z,81.11
2018-01-15T10:02:25.170Z,81.15
2018-01-15T10:03:25.161Z,81.04
2018-01-15T10:04:25.168Z,81.03
2018-01-15T10:05:25.458Z,81.04
2018-01-15T10:06:25.228Z,81.21
2018-01-15T10:07:25.752Z,81.22
2018-01-15T10:08:25.199Z,81.27
2018-01-15T10:09:25.266Z,80.93
2018-01-15T10:10:25.223Z,80.78
2018-01-15T10:11:25.769Z,80.74
2018-01-15T10:12:25.448Z,80.68
2018-01-15T10:13:25.794Z,80.65
2018-01-15T10:14:24.555Z,80.94
2018-01-15T10:15:24.641Z,81.04
2018-01-15T10:16:24.455Z,80.93
2018-01-15T10:17:24.771Z,80.81
2018-01-15T10:18:24.634Z,81.08
2018-01-15T10:19:24.670Z,81.14
2018-01-15T10:20:24.725Z,81.12
2018-01-15T10:21:24.529Z,81.21
2018-01-15T10:22:24.534Z,81.43
2018-01-15T10:23:24.465Z,81.29
2018-01-15T10:24:24.457Z,81.15
2018-01-15T10:25:24.632Z,81.37
2018-01-15T10:26:24.686Z,81.17
2018-01-15T10:27:24.460Z,81.27
2018-01-15T10:28:24.525Z,81.3
2018-01-15T10:29:24.651Z,81.33
2018-01-15T10:30:24.378Z,81.23
2018-01-15T10:31:24.650Z,80.98
2018-01-15T10:32:24.390Z,81.18
2018-01-15T10:33:24.662Z,81
2018-01-15T10:34:24.303Z,81.47
2018-01-15T10:35:24.279Z,81.27
2018-01-15T10:36:24.544Z,81.23
2018-01-15T10:37:24.446Z,81.35
2018-01-15T10:38:24.526Z,81.44
2018-01-15T10:39:24.460Z,81.46
2018-01-15T10:40:24.438Z,81.37
2018-01-15T10:41:24.448Z,81.43
2018-01-15T10:42:24.655Z,81.32
2018-01-15T10:43:24.559Z,81.43
2018-01-15T10:44:24.668Z,81.41
2018-01-15T10:45:24.643Z,81.29
2018-01-15T10:46:24.662Z,81.38
2018-01-15T10:47:24.616Z,81.36
2018-01-15T10:48:24.601Z,81.45
2018-01-15T10:49:24.733Z,81.57
2018-01-15T10:50:24.692Z,81.54
2018-01-15T10:51:24.693Z,81.41
2018-01-15T10:52:24.680Z,81.51
2018-01-15T10:53:24.760Z,81.53
2018-01-15T10:54:24.795Z,81.46
2018-01-15T10:55:24.653Z,81.65
2018-01-15T10:56:24.593Z,81.69
2018-01-15T10:57:24.575Z,81.38
2018-01-15T10:58:24.718Z,81.22
2018-01-15T10:59:24.664Z,81.5
2018-01-15T11:00:24.405Z,81.51
2018-01-15T11:01:24.754Z,81.41
2018-01-15T11:02:24.682Z,81.23
2018-01-15T11:03:24.663Z,81.05
2018-01-15T11:04:24.671Z,81.24
2018-01-15T11:05:24.933Z,81.25
2018-01-15T11:06:24.809Z,80.95
2018-01-15T11:07:24.702Z,81.26
2018-01-15T11:08:24.747Z,81.08
2018-01-15T11:09:24.672Z,80.84
2018-01-15T11:10:24.542Z,81.07
2018-01-15T11:11:24.706Z,81.04
2018-01-15T11:12:24.751Z,81.21
2018-01-15T11:13:24.858Z,81.13
2018-01-15T11:14:24.903Z,81.01
2018-01-15T11:15:24.630Z,80.95
2018-01-15T11:16:24.491Z,80.99
2018-01-15T11:17:24.604Z,80.81
2018-01-15T11:18:24.549Z,80.58
2018-01-15T11:19:24.778Z,80.71
2018-01-15T11:20:24.601Z,80.56
2018-01-15T11:21:24.753Z,80.63
2018-01-15T11:22:24.764Z,80.47
2018-01-15T11:23:24.516Z,80.51
2018-01-15T11:24:24.647Z,80.65
2018-01-15T11:25:24.804Z,80.56
2018-01-15T11:26:24.650Z,80.6
2018-01-15T11:27:24.728Z,80.57
2018-01-15T11:28:24.759Z,80.38
2018-01-15T11:29:24.609Z,80.43
2018-01-15T11:30:24.945Z,80.4
2018-01-15T11:31:24.652Z,80.06
2018-01-15T11:32:24.851Z,79.79
2018-01-15T11:33:24.755Z,79.83
2018-01-15T11:34:24.917Z,79.72
2018-01-15T11:35:24.827Z,80.07
2018-01-15T11:36:24.891Z,79.62
2018-01-15T11:37:24.712Z,79.71
2018-01-15T11:38:24.744Z,79.65
2018-01-15T11:39:24.708Z,79.55
2018-01-15T11:40:24.748Z,79.38
2018-01-15T11:41:24.835Z,79.25
2018-01-15T11:42:24.622Z,79.82
2018-01-15T11:43:24.638Z,79.46
2018-01-15T11:44:24.935Z,79.62
2018-01-15T11:45:24.706Z,79.53
2018-01-15T11:46:25.134Z,79.45
2018-01-15T11:47:24.695Z,79.33
2018-01-15T11:48:24.764Z,79.41
2018-01-15T11:49:24.773Z,79.37
2018-01-15T11:50:24.782Z,79.26
2018-01-15T11:51:24.886Z,79.28
2018-01-15T11:52:24.795Z,79.49
2018-01-15T11:53:24.691Z,79.42
2018-01-15T11:54:24.850Z,79.35
2018-01-15T11:55:24.557Z,79.32
2018-01-15T11:56:24.723Z,79.26
2018-01-15T11:57:24.852Z,79.41
2018-01-15T11:58:24.715Z,79.41
2018-01-15T11:59:24.732Z,79.47
2018-01-15T12:00:24.790Z,79.34
2018-01-15T12:01:24.780Z,79.47
2018-01-15T12:02:24.804Z,79.28
2018-01-15T12:03:24.872Z,79.37
2018-01-15T12:04:24.886Z,79.33
2018-01-15T12:05:24.768Z,79.39
2018-01-15T12:06:24.604Z,79.38
2018-01-15T12:07:24.780Z,79.44
2018-01-15T12:08:24.920Z,79.5
2018-01-15T12:09:24.858Z,79.53
2018-01-15T12:10:24.717Z,79.67
2018-01-15T12:11:24.663Z,79.46
2018-01-15T12:12:24.503Z,79.46
2018-01-15T12:13:24.852Z,79.39
2018-01-15T12:14:24.812Z,79.4
2018-01-15T12:15:24.819Z,79.39
2018-01-15T12:16:24.687Z,79.52
2018-01-15T12:17:24.764Z,79.51
2018-01-15T12:18:24.695Z,79.6
2018-01-15T12:19:24.653Z,79.59
2018-01-15T12:20:24.833Z,79.52
2018-01-15T12:21:24.959Z,79.67
2018-01-15T12:22:24.800Z,79.64
2018-01-15T12:23:24.781Z,79.69
2018-01-15T12:24:24.921Z,79.61
2018-01-15T12:25:24.790Z,79.59
2018-01-15T12:26:24.829Z,79.42
2018-01-15T12:27:24.771Z,79.6
2018-01-15T12:28:24.803Z,79.51
2018-01-15T12:29:25.194Z,79.75
2018-01-15T12:30:24.841Z,79.3
2018-01-15T12:31:24.852Z,79.24
2018-01-15T12:32:24.893Z,79.48
2018-01-15T12:33:24.966Z,79.6
2018-01-15T12:34:25.012Z,79.58
2018-01-15T12:35:24.712Z,79.47
2018-01-15T12:36:24.833Z,79.3
2018-01-15T12:37:24.627Z,79.19
2018-01-15T12:38:24.740Z,78.93
2018-01-15T12:39:25.094Z,79.05
2018-01-15T12:40:24.809Z,78.91
2018-01-15T12:41:24.969Z,79.07
2018-01-15T12:42:24.771Z,79.02
2018-01-15T12:43:24.592Z,79.06
2018-01-15T12:44:25.057Z,78.89
2018-01-15T12:45:25.015Z,78.79
2018-01-15T12:46:24.814Z,78.9
2018-01-15T12:47:24.820Z,78.94
2018-01-15T12:48:24.762Z,79
2018-01-15T12:49:24.782Z,79
2018-01-15T12:50:24.947Z,78.87
2018-01-15T12:51:24.870Z,78.92
2018-01-15T12:52:24.811Z,78.6
2018-01-15T12:53:24.914Z,78.48
2018-01-15T12:54:24.823Z,78.47
2018-01-15T12:55:24.948Z,78.45
2018-01-15T12:56:24.939Z,78.42
2018-01-15T12:57:24.892Z,78.37
2018-01-15T12:58:24.896Z,78.48